Terminal Aerodrome Forecast
Issued by NWS Twin Cities, MN

Home | Current Version | Previous Version | Text Only | Print | Product List | Glossary On
Versions: 1 2 3 4 5 6 7 8 9 10 11 12 13 14 15 16 17 18 19
000
FTUS43 KMPX 240520
TAFEAU
TAF
KEAU 240520Z 2406/2506 24005KT P6SM SCT025 BKN050
      TEMPO 2406/2410 BKN025 OVC050
     FM241000 27006KT P6SM BKN025 BKN150
     FM250300 04005KT 2SM -SN OVC012
      TEMPO 2503/2506 1SM -SN VV006=

USA.gov is the U.S. government's official web portal to all federal, state and local government web resources and services.